createdAt,value
2022-11-23T00:00:24.525Z,99.99
2022-11-23T00:01:24.506Z,99.99
2022-11-23T00:02:24.599Z,99.99
2022-11-23T00:03:24.486Z,99.99
2022-11-23T00:04:24.466Z,99.99
2022-11-23T00:05:24.455Z,99.99
2022-11-23T00:06:24.453Z,99.99
2022-11-23T00:07:24.469Z,99.99
2022-11-23T00:08:24.541Z,99.99
2022-11-23T00:09:24.412Z,99.99
2022-11-23T00:10:24.399Z,99.99
2022-11-23T00:11:24.388Z,99.99
2022-11-23T00:12:24.367Z,99.99
2022-11-23T00:13:24.367Z,99.99
2022-11-23T00:14:24.352Z,99.99
2022-11-23T00:15:24.330Z,99.99
2022-11-23T00:16:24.324Z,99.99
2022-11-23T00:17:24.303Z,99.99
2022-11-23T00:18:24.296Z,99.99
2022-11-23T00:19:24.287Z,99.99
2022-11-23T00:20:24.274Z,99.99
2022-11-23T00:21:24.261Z,99.99
2022-11-23T00:22:24.250Z,99.99
2022-11-23T00:23:24.233Z,99.99
2022-11-23T00:24:24.240Z,99.99
2022-11-23T00:25:24.203Z,99.99
2022-11-23T00:26:24.192Z,99.99
2022-11-23T00:27:24.178Z,99.99
2022-11-23T00:28:24.179Z,99.99
2022-11-23T00:29:24.159Z,99.99
2022-11-23T00:30:24.145Z,99.99
2022-11-23T00:31:24.127Z,99.99
2022-11-23T00:32:24.120Z,99.99
2022-11-23T00:33:24.109Z,99.99
2022-11-23T00:34:24.093Z,99.99
2022-11-23T00:35:24.078Z,99.99
2022-11-23T00:36:24.073Z,99.99
2022-11-23T00:37:24.058Z,99.99
2022-11-23T00:38:24.040Z,99.99
2022-11-23T00:39:24.034Z,99.99
2022-11-23T00:40:24.042Z,99.99
2022-11-23T00:41:24.012Z,99.99
2022-11-23T00:42:23.998Z,99.99
2022-11-23T00:43:23.982Z,99.99
2022-11-23T00:44:23.973Z,99.99
2022-11-23T00:45:23.974Z,99.99
2022-11-23T00:46:23.955Z,99.99
2022-11-23T00:47:23.938Z,99.99
2022-11-23T00:48:23.924Z,99.99
2022-11-23T00:49:23.903Z,99.99
2022-11-23T00:50:23.901Z,99.99
2022-11-23T00:51:23.884Z,99.99
2022-11-23T00:52:23.863Z,99.99
2022-11-23T00:53:23.858Z,99.99
2022-11-23T00:54:23.845Z,99.99
2022-11-23T00:55:23.831Z,99.99
2022-11-23T00:56:23.862Z,99.99
2022-11-23T00:57:23.810Z,99.99
2022-11-23T00:58:23.804Z,99.99
2022-11-23T00:59:23.785Z,99.99
2022-11-23T01:00:23.781Z,99.99
2022-11-23T01:01:23.810Z,99.99
2022-11-23T01:02:23.741Z,99.99
2022-11-23T01:03:23.730Z,99.99
2022-11-23T01:04:23.720Z,99.99
2022-11-23T01:05:23.703Z,99.99
2022-11-23T01:06:23.702Z,99.99
2022-11-23T01:07:23.706Z,99.99
2022-11-23T01:08:23.670Z,99.99
2022-11-23T01:09:23.653Z,99.99
2022-11-23T01:10:23.652Z,99.99
2022-11-23T01:11:23.635Z,99.99
2022-11-23T01:12:23.645Z,99.99
2022-11-23T01:13:23.613Z,99.99
2022-11-23T01:14:23.597Z,99.99
2022-11-23T01:15:23.579Z,99.99
2022-11-23T01:16:24.549Z,99.99
2022-11-23T01:17:23.563Z,99.99
2022-11-23T01:18:23.545Z,99.99
2022-11-23T01:19:23.540Z,99.99
2022-11-23T01:20:23.524Z,99.99
2022-11-23T01:21:23.503Z,99.99
2022-11-23T01:22:23.495Z,99.99
2022-11-23T01:23:23.494Z,99.99
2022-11-23T01:24:23.475Z,99.99
2022-11-23T01:25:23.467Z,99.99
2022-11-23T01:26:23.465Z,99.99
2022-11-23T01:27:23.436Z,99.99
2022-11-23T01:28:23.444Z,99.99
2022-11-23T01:29:23.413Z,99.99
2022-11-23T01:30:23.401Z,99.99
2022-11-23T01:31:23.378Z,99.99
2022-11-23T01:32:23.376Z,99.99
2022-11-23T01:33:23.357Z,99.99
2022-11-23T01:34:23.344Z,99.99
2022-11-23T01:35:23.331Z,99.99
2022-11-23T01:36:23.320Z,99.99
2022-11-23T01:37:23.309Z,99.99
2022-11-23T01:38:23.299Z,99.99
2022-11-23T01:39:23.289Z,99.99
2022-11-23T01:40:23.271Z,99.99
2022-11-23T01:41:23.251Z,99.99
2022-11-23T01:42:23.239Z,99.99
2022-11-23T01:43:23.236Z,99.99
2022-11-23T01:44:23.244Z,99.99
2022-11-23T01:45:23.202Z,99.99
2022-11-23T01:46:23.197Z,99.99
2022-11-23T01:47:23.182Z,99.99
2022-11-23T01:48:23.169Z,99.99
2022-11-23T01:49:23.155Z,99.99
2022-11-23T01:50:23.140Z,99.99
2022-11-23T01:51:23.120Z,99.99
2022-11-23T01:52:23.116Z,99.99
2022-11-23T01:53:23.094Z,99.99
2022-11-23T01:54:23.095Z,99.99
2022-11-23T01:55:23.077Z,99.99
2022-11-23T01:56:23.068Z,99.99
2022-11-23T01:57:23.054Z,99.99
2022-11-23T01:58:23.037Z,99.99
2022-11-23T01:59:23.018Z,99.99
2022-11-23T02:00:23.032Z,99.99
2022-11-23T02:01:23.065Z,99.99
2022-11-23T02:02:22.985Z,99.99
2022-11-23T02:03:22.970Z,99.99
2022-11-23T02:04:22.952Z,99.99
2022-11-23T02:05:22.945Z,99.99
2022-11-23T02:06:22.931Z,99.99
2022-11-23T02:07:22.953Z,99.99
2022-11-23T02:08:22.903Z,99.99
2022-11-23T02:09:22.889Z,99.99
2022-11-23T02:10:22.874Z,99.99
2022-11-23T02:11:22.863Z,99.99
2022-11-23T02:12:22.857Z,99.99
2022-11-23T02:13:22.836Z,99.99
2022-11-23T02:14:23.677Z,99.99
2022-11-23T02:15:22.821Z,99.99
2022-11-23T02:16:22.819Z,99.99
2022-11-23T02:17:22.783Z,99.99
2022-11-23T02:18:22.785Z,99.99
2022-11-23T02:19:22.763Z,99.99
2022-11-23T02:20:22.758Z,99.99
2022-11-23T02:21:22.732Z,99.99
2022-11-23T02:22:22.731Z,99.99
2022-11-23T02:23:22.718Z,99.99
2022-11-23T02:24:22.704Z,99.99
2022-11-23T02:25:22.683Z,99.99
2022-11-23T02:26:22.683Z,99.99
2022-11-23T02:27:22.653Z,99.99
2022-11-23T02:28:22.642Z,99.99
2022-11-23T02:29:22.628Z,99.99
2022-11-23T02:30:22.626Z,99.99
2022-11-23T02:31:22.601Z,99.99
2022-11-23T02:32:22.618Z,99.99
2022-11-23T02:33:22.583Z,99.99
2022-11-23T02:34:22.569Z,99.99
2022-11-23T02:35:22.551Z,99.99
2022-11-23T02:36:22.536Z,99.99
2022-11-23T02:37:22.525Z,99.99
2022-11-23T02:38:22.521Z,99.99
2022-11-23T02:39:22.504Z,99.99
2022-11-23T02:40:22.496Z,99.99
2022-11-23T02:41:22.487Z,99.99
2022-11-23T02:42:22.461Z,99.99
2022-11-23T02:43:22.455Z,99.99
2022-11-23T02:44:22.436Z,99.99
2022-11-23T02:45:22.415Z,99.99
2022-11-23T02:46:22.417Z,99.99
2022-11-23T02:47:22.469Z,99.99
2022-11-23T02:48:22.407Z,99.99
2022-11-23T02:49:22.378Z,99.99
2022-11-23T02:50:22.369Z,99.99
2022-11-23T02:51:22.342Z,99.99
2022-11-23T02:52:22.343Z,99.99
2022-11-23T02:53:22.327Z,99.99
2022-11-23T02:54:22.304Z,99.99
2022-11-23T02:55:22.301Z,99.99
2022-11-23T02:56:22.285Z,99.99
2022-11-23T02:57:22.272Z,99.99
2022-11-23T02:58:22.266Z,99.99
2022-11-23T02:59:22.238Z,99.99
2022-11-23T03:00:22.230Z,99.99
2022-11-23T03:01:22.275Z,99.99
2022-11-23T03:02:22.199Z,99.99
2022-11-23T03:03:22.189Z,99.99
2022-11-23T03:04:27.577Z,99.99
2022-11-23T03:05:22.161Z,99.99
2022-11-23T03:06:22.157Z,99.99
2022-11-23T03:07:22.182Z,99.99
2022-11-23T03:08:22.134Z,99.99
2022-11-23T03:09:22.141Z,99.99
2022-11-23T03:10:22.101Z,99.99
2022-11-23T03:11:22.092Z,99.99
2022-11-23T03:12:22.084Z,99.99
2022-11-23T03:13:22.065Z,99.99
2022-11-23T03:14:22.047Z,99.99
2022-11-23T03:15:22.031Z,99.99
2022-11-23T03:16:22.031Z,99.99
2022-11-23T03:17:22.001Z,99.99
2022-11-23T03:18:21.994Z,99.99
2022-11-23T03:19:21.979Z,99.99
2022-11-23T03:20:21.991Z,99.99
2022-11-23T03:21:21.952Z,99.99
2022-11-23T03:22:21.951Z,99.99
2022-11-23T03:23:21.937Z,99.99
2022-11-23T03:24:21.915Z,99.99
2022-11-23T03:25:21.910Z,99.99
2022-11-23T03:26:21.894Z,99.99
2022-11-23T03:27:21.876Z,99.99
2022-11-23T03:28:21.878Z,99.99
2022-11-23T03:29:21.859Z,99.99
2022-11-23T03:30:21.846Z,99.99
2022-11-23T03:31:21.840Z,99.99
2022-11-23T03:32:21.814Z,99.99
2022-11-23T03:33:21.801Z,99.99
2022-11-23T03:34:21.799Z,99.99
2022-11-23T03:35:21.780Z,99.99
2022-11-23T03:36:21.796Z,99.99
2022-11-23T03:37:21.754Z,99.99
2022-11-23T03:38:21.740Z,99.99
2022-11-23T03:39:21.731Z,99.99
2022-11-23T03:40:21.707Z,99.99
2022-11-23T03:41:21.702Z,99.99
2022-11-23T03:42:21.694Z,99.99
2022-11-23T03:43:21.677Z,99.99
2022-11-23T03:44:21.677Z,99.99
2022-11-23T03:45:21.647Z,99.99
2022-11-23T03:46:21.638Z,99.99
2022-11-23T03:47:21.625Z,99.99
2022-11-23T03:48:21.604Z,99.99
2022-11-23T03:49:21.596Z,99.99
2022-11-23T03:50:21.587Z,99.99
2022-11-23T03:51:21.565Z,99.99
2022-11-23T03:52:21.580Z,99.99
2022-11-23T03:53:21.540Z,99.99
2022-11-23T03:54:21.528Z,99.99
2022-11-23T03:55:21.514Z,99.99
2022-11-23T03:56:21.504Z,99.99
2022-11-23T03:57:21.492Z,99.99
2022-11-23T03:58:21.475Z,99.99
2022-11-23T03:59:21.470Z,99.99
2022-11-23T04:00:21.453Z,99.99
2022-11-23T04:01:21.499Z,99.99
2022-11-23T04:02:21.430Z,99.99
2022-11-23T04:03:21.421Z,99.99
2022-11-23T04:04:21.399Z,99.99
2022-11-23T04:05:21.393Z,99.99
2022-11-23T04:06:21.384Z,99.99
2022-11-23T04:07:21.422Z,99.99
2022-11-23T04:08:21.369Z,99.99
2022-11-23T04:09:21.347Z,99.99
2022-11-23T04:10:21.316Z,99.99
2022-11-23T04:11:21.314Z,99.99
2022-11-23T04:12:21.292Z,99.99
2022-11-23T04:13:21.285Z,99.99
2022-11-23T04:14:21.270Z,99.99
2022-11-23T04:15:21.267Z,99.99
2022-11-23T04:16:21.255Z,99.99
2022-11-23T04:17:21.244Z,99.99
2022-11-23T04:18:21.223Z,99.99
2022-11-23T04:19:21.211Z,99.99
2022-11-23T04:20:21.195Z,99.99
2022-11-23T04:21:21.175Z,99.99
2022-11-23T04:22:21.169Z,99.99
2022-11-23T04:23:21.150Z,99.99
2022-11-23T04:24:21.162Z,99.99
2022-11-23T04:25:21.123Z,99.99
2022-11-23T04:26:21.111Z,99.99
2022-11-23T04:27:21.101Z,99.99
2022-11-23T04:28:21.092Z,99.99
2022-11-23T04:29:21.084Z,99.99
2022-11-23T04:30:21.060Z,99.99
2022-11-23T04:31:21.050Z,99.99
2022-11-23T04:32:21.037Z,99.99
2022-11-23T04:33:21.026Z,99.99
2022-11-23T04:34:21.018Z,99.99
2022-11-23T04:35:21.002Z,99.99
2022-11-23T04:36:20.982Z,99.99
2022-11-23T04:37:20.971Z,99.99
2022-11-23T04:38:20.963Z,99.99
2022-11-23T04:39:20.951Z,99.99
2022-11-23T04:40:20.961Z,99.99
2022-11-23T04:41:20.924Z,99.99
2022-11-23T04:42:20.905Z,99.99
2022-11-23T04:43:20.893Z,99.99
2022-11-23T04:44:20.890Z,99.99
2022-11-23T04:45:20.876Z,99.99
2022-11-23T04:46:20.861Z,99.99
2022-11-23T04:47:20.847Z,99.99
2022-11-23T04:48:20.826Z,99.99
2022-11-23T04:49:20.821Z,99.99
2022-11-23T04:50:20.813Z,99.99
2022-11-23T04:51:20.800Z,99.99
2022-11-23T04:52:20.781Z,99.99
2022-11-23T04:53:20.773Z,99.99
2022-11-23T04:54:20.769Z,99.99
2022-11-23T04:55:20.734Z,99.99
2022-11-23T04:56:20.792Z,99.99
2022-11-23T04:57:20.709Z,99.99
2022-11-23T04:58:20.703Z,99.99
2022-11-23T04:59:20.696Z,99.99
2022-11-23T05:00:20.689Z,99.99
2022-11-23T05:01:20.706Z,99.99
2022-11-23T05:02:20.646Z,99.99
2022-11-23T05:03:20.646Z,99.99
2022-11-23T05:04:20.625Z,99.99
2022-11-23T05:05:20.609Z,99.99
2022-11-23T05:06:20.605Z,99.99
2022-11-23T05:07:20.678Z,99.99
2022-11-23T05:08:20.581Z,99.99
2022-11-23T05:09:20.566Z,99.99
2022-11-23T05:10:20.548Z,99.99
2022-11-23T05:11:20.533Z,99.99
2022-11-23T05:12:20.548Z,99.99
2022-11-23T05:13:20.500Z,99.99
2022-11-23T05:14:20.491Z,99.99
2022-11-23T05:15:20.481Z,99.99
2022-11-23T05:16:20.482Z,99.99
2022-11-23T05:17:20.455Z,99.99
2022-11-23T05:18:20.446Z,99.99
2022-11-23T05:19:20.436Z,99.99
2022-11-23T05:20:20.411Z,99.99
2022-11-23T05:21:20.404Z,99.99
2022-11-23T05:22:20.393Z,99.99
2022-11-23T05:23:20.388Z,99.99
2022-11-23T05:24:20.369Z,99.99
2022-11-23T05:25:20.350Z,99.99
2022-11-23T05:26:20.356Z,99.99
2022-11-23T05:27:20.333Z,99.99
2022-11-23T05:28:39.587Z,99.99
2022-11-23T05:29:21.332Z,99.99
2022-11-23T05:30:20.280Z,99.99
2022-11-23T05:31:20.268Z,99.99
2022-11-23T05:32:20.266Z,99.99
2022-11-23T05:33:20.245Z,99.99
2022-11-23T05:34:20.240Z,99.99
2022-11-23T05:35:20.226Z,99.99
2022-11-23T05:36:20.218Z,99.99
2022-11-23T05:37:20.197Z,99.99
2022-11-23T05:38:20.178Z,99.99
2022-11-23T05:39:20.165Z,99.99
2022-11-23T05:40:20.160Z,99.99
2022-11-23T05:41:20.154Z,99.99
2022-11-23T05:42:20.132Z,99.99
2022-11-23T05:43:20.128Z,99.99
2022-11-23T05:44:20.135Z,99.99
2022-11-23T05:45:20.103Z,99.99
2022-11-23T05:46:20.086Z,99.99
2022-11-23T05:47:20.075Z,99.99
2022-11-23T05:48:20.062Z,99.99
2022-11-23T05:49:20.044Z,99.99
2022-11-23T05:50:20.031Z,99.99
2022-11-23T05:51:20.014Z,99.99
2022-11-23T05:52:20.000Z,99.99
2022-11-23T05:53:19.984Z,99.99
2022-11-23T05:54:19.981Z,99.99
2022-11-23T05:55:19.968Z,99.99
2022-11-23T05:56:19.946Z,99.99
2022-11-23T05:57:19.942Z,99.99
2022-11-23T05:58:19.934Z,99.99
2022-11-23T05:59:19.907Z,99.99
2022-11-23T06:00:19.924Z,99.99
2022-11-23T06:01:19.881Z,99.99
2022-11-23T06:02:19.871Z,99.99
2022-11-23T06:03:19.868Z,99.99
2022-11-23T06:04:19.921Z,99.99
2022-11-23T06:05:19.826Z,99.99
2022-11-23T06:06:19.820Z,99.99
2022-11-23T06:07:19.877Z,99.99
2022-11-23T06:08:19.788Z,99.99
2022-11-23T06:09:19.791Z,99.99
2022-11-23T06:10:19.774Z,99.99
2022-11-23T06:11:19.755Z,99.99
2022-11-23T06:12:19.751Z,99.99
2022-11-23T06:13:19.730Z,99.99
2022-11-23T06:14:19.724Z,99.99
2022-11-23T06:15:19.710Z,99.99
2022-11-23T06:16:19.710Z,99.99
2022-11-23T06:17:19.672Z,99.99
2022-11-23T06:18:19.668Z,99.99
2022-11-23T06:19:19.647Z,99.99
2022-11-23T06:20:19.639Z,99.99
2022-11-23T06:21:19.622Z,99.99
2022-11-23T06:22:19.617Z,99.99
2022-11-23T06:23:19.595Z,99.99
2022-11-23T06:24:19.589Z,99.99
2022-11-23T06:25:19.575Z,99.99
2022-11-23T06:26:19.560Z,99.99
2022-11-23T06:27:19.556Z,99.99
2022-11-23T06:28:19.542Z,99.99
2022-11-23T06:29:19.527Z,99.99
2022-11-23T06:30:19.507Z,99.99
2022-11-23T06:31:19.494Z,99.99
2022-11-23T06:32:19.510Z,99.99
2022-11-23T06:33:19.466Z,99.99
2022-11-23T06:34:19.450Z,99.99
2022-11-23T06:35:19.452Z,99.99
2022-11-23T06:36:19.427Z,99.99
2022-11-23T06:37:19.426Z,99.99
2022-11-23T06:38:19.402Z,99.99
2022-11-23T06:39:19.392Z,99.99
2022-11-23T06:40:19.389Z,99.99
2022-11-23T06:41:19.376Z,99.99
2022-11-23T06:42:48.406Z,99.99
2022-11-23T06:43:20.369Z,99.99
2022-11-23T06:44:19.325Z,99.99
2022-11-23T06:45:19.311Z,99.99
2022-11-23T06:46:19.295Z,99.99
2022-11-23T06:47:24.563Z,99.99
2022-11-23T06:48:20.333Z,99.99
2022-11-23T06:49:19.267Z,99.99
2022-11-23T06:50:19.245Z,99.99
2022-11-23T06:51:19.243Z,99.99
2022-11-23T06:52:19.230Z,99.99
2022-11-23T06:53:19.207Z,99.99
2022-11-23T06:54:21.238Z,99.99
2022-11-23T06:55:19.180Z,99.99
2022-11-23T06:56:19.182Z,99.99
2022-11-23T06:57:19.156Z,99.99
2022-11-23T06:58:19.147Z,99.99
2022-11-23T06:59:19.129Z,99.99
2022-11-23T07:00:19.118Z,99.99
2022-11-23T07:01:19.196Z,99.99
2022-11-23T07:02:19.088Z,99.99
2022-11-23T07:03:19.144Z,99.99
2022-11-23T07:04:19.090Z,99.99
2022-11-23T07:05:19.046Z,99.99
2022-11-23T07:06:19.038Z,99.99
2022-11-23T07:07:19.109Z,99.99
2022-11-23T07:08:19.023Z,99.99
2022-11-23T07:09:19.007Z,99.99
2022-11-23T07:10:18.993Z,99.99
2022-11-23T07:11:18.984Z,99.99
2022-11-23T07:12:18.966Z,99.99
2022-11-23T07:13:18.956Z,99.99
2022-11-23T07:14:18.936Z,99.99
2022-11-23T07:15:18.922Z,99.99
2022-11-23T07:16:18.917Z,99.99
2022-11-23T07:17:18.906Z,99.99
2022-11-23T07:18:18.882Z,99.99
2022-11-23T07:19:18.875Z,99.99
2022-11-23T07:20:18.883Z,99.99
2022-11-23T07:21:18.845Z,99.99
2022-11-23T07:22:18.837Z,99.99
2022-11-23T07:23:18.815Z,99.99
2022-11-23T07:24:18.815Z,99.99
2022-11-23T07:25:18.794Z,99.99
2022-11-23T07:26:18.782Z,99.99
2022-11-23T07:27:18.775Z,99.99
2022-11-23T07:28:18.754Z,99.99
2022-11-23T07:29:18.743Z,99.99
2022-11-23T07:30:18.741Z,99.99
2022-11-23T07:31:18.718Z,99.99
2022-11-23T07:32:18.702Z,99.99
2022-11-23T07:33:18.697Z,99.99
2022-11-23T07:34:18.686Z,99.99
2022-11-23T07:35:18.672Z,99.99
2022-11-23T07:36:18.682Z,99.99
2022-11-23T07:37:18.658Z,99.99
2022-11-23T07:38:18.632Z,99.99
2022-11-23T07:39:18.612Z,99.99
2022-11-23T07:40:18.612Z,99.99
2022-11-23T07:41:18.590Z,99.99
2022-11-23T07:42:32.279Z,99.99
2022-11-23T07:43:19.594Z,99.99
2022-11-23T07:44:18.544Z,99.99
2022-11-23T07:45:18.531Z,99.99
2022-11-23T07:46:18.525Z,99.99
2022-11-23T07:47:18.508Z,99.99
2022-11-23T07:48:18.527Z,99.99
2022-11-23T07:49:18.492Z,99.99
2022-11-23T07:50:18.477Z,99.99
2022-11-23T07:51:18.464Z,99.99
2022-11-23T07:52:18.477Z,99.99
2022-11-23T07:53:18.425Z,99.99
2022-11-23T07:54:23.424Z,99.99
2022-11-23T07:55:18.406Z,99.99
2022-11-23T07:56:18.390Z,99.99
2022-11-23T07:57:18.378Z,99.99
2022-11-23T07:58:18.369Z,99.99
2022-11-23T07:59:18.357Z,99.99
2022-11-23T08:00:18.341Z,99.99
2022-11-23T08:01:18.344Z,99.99
2022-11-23T08:02:18.362Z,99.99
2022-11-23T08:03:33.886Z,99.99
2022-11-23T08:04:19.327Z,99.99
2022-11-23T08:05:18.282Z,99.99
2022-11-23T08:06:18.292Z,99.99
2022-11-23T08:07:18.311Z,99.99
2022-11-23T08:08:18.274Z,99.99
2022-11-23T08:09:18.228Z,99.99
2022-11-23T08:10:18.213Z,99.99
2022-11-23T08:11:18.204Z,99.99
2022-11-23T08:12:18.175Z,99.76
2022-11-23T08:13:18.170Z,99.24
2022-11-23T08:14:18.157Z,98.72
2022-11-23T08:15:18.144Z,98.20
2022-11-23T08:16:18.126Z,97.47
2022-11-23T08:17:18.118Z,97.27
2022-11-23T08:18:18.107Z,97.33
2022-11-23T08:19:18.098Z,97.07
2022-11-23T08:20:18.081Z,95.78
2022-11-23T08:21:18.075Z,94.95
2022-11-23T08:22:18.050Z,94.33
2022-11-23T08:23:18.055Z,93.87
2022-11-23T08:24:18.054Z,93.10
2022-11-23T08:25:18.009Z,91.93
2022-11-23T08:26:18.002Z,90.58
2022-11-23T08:27:17.992Z,90.16
2022-11-23T08:28:17.972Z,90.26
2022-11-23T08:29:17.960Z,89.50
2022-11-23T08:30:17.963Z,88.64
2022-11-23T08:31:17.933Z,88.16
2022-11-23T08:32:17.933Z,88.92
2022-11-23T08:33:17.911Z,89.54
2022-11-23T08:34:17.904Z,89.92
2022-11-23T08:35:17.893Z,88.64
2022-11-23T08:36:17.868Z,88.57
2022-11-23T08:37:17.859Z,89.13
2022-11-23T08:38:17.853Z,89.65
2022-11-23T08:39:17.829Z,89.89
2022-11-23T08:40:23.542Z,90.14
2022-11-23T08:41:18.843Z,90.56
2022-11-23T08:42:17.796Z,91.08
2022-11-23T08:43:17.792Z,91.70
2022-11-23T08:44:17.768Z,92.01
2022-11-23T08:45:17.767Z,92.03
2022-11-23T08:46:17.748Z,90.14
2022-11-23T08:47:17.731Z,88.28
2022-11-23T08:48:17.725Z,87.97
2022-11-23T08:49:17.700Z,88.04
2022-11-23T08:50:17.686Z,87.27
2022-11-23T08:51:17.675Z,86.36
2022-11-23T08:52:17.682Z,85.68
2022-11-23T08:53:17.667Z,85.19
2022-11-23T08:54:17.632Z,81.91
2022-11-23T08:55:17.626Z,78.06
2022-11-23T08:56:17.641Z,76.75
2022-11-23T08:57:17.601Z,75.97
2022-11-23T08:58:17.594Z,76.10
2022-11-23T08:59:17.579Z,76.45
2022-11-23T09:00:17.567Z,77.14
2022-11-23T09:01:17.669Z,78.61
2022-11-23T09:02:17.530Z,79.51
2022-11-23T09:03:17.525Z,80.27
2022-11-23T09:04:20.684Z,81.85
2022-11-23T09:05:17.495Z,81.74
2022-11-23T09:06:17.507Z,80.44
2022-11-23T09:07:17.565Z,81.40
2022-11-23T09:08:17.470Z,81.54
2022-11-23T09:09:17.451Z,82.20
2022-11-23T09:10:19.144Z,83.58
2022-11-23T09:11:17.418Z,84.51
2022-11-23T09:12:17.437Z,85.17
2022-11-23T09:13:17.395Z,85.52
2022-11-23T09:14:17.398Z,85.52
2022-11-23T09:15:17.370Z,85.58
2022-11-23T09:16:17.361Z,85.89
2022-11-23T09:17:17.365Z,85.99
2022-11-23T09:18:17.331Z,85.78
2022-11-23T09:19:17.318Z,85.99
2022-11-23T09:20:17.325Z,86.03
2022-11-23T09:21:17.300Z,86.76
2022-11-23T09:22:17.302Z,87.31
2022-11-23T09:23:17.274Z,87.31
2022-11-23T09:24:17.353Z,87.07
2022-11-23T09:25:17.253Z,85.50
2022-11-23T09:26:17.231Z,84.64
2022-11-23T09:27:17.226Z,84.53
2022-11-23T09:28:17.233Z,84.43
2022-11-23T09:29:17.211Z,84.88
2022-11-23T09:30:17.190Z,85.13
2022-11-23T09:31:17.172Z,85.54
2022-11-23T09:32:17.159Z,86.20
2022-11-23T09:33:17.150Z,86.55
2022-11-23T09:34:17.147Z,87.00
2022-11-23T09:35:17.128Z,87.62
2022-11-23T09:36:17.108Z,88.49
2022-11-23T09:37:17.103Z,88.90
2022-11-23T09:38:17.110Z,89.15
2022-11-23T09:39:17.067Z,89.36
2022-11-23T09:40:17.066Z,89.56
2022-11-23T09:41:17.041Z,90.12
2022-11-23T09:42:17.032Z,90.53
2022-11-23T09:43:17.023Z,90.74
2022-11-23T09:44:17.037Z,90.50
2022-11-23T09:45:17.005Z,90.70
2022-11-23T09:46:16.996Z,90.80
2022-11-23T09:47:16.962Z,90.80
2022-11-23T09:48:16.958Z,91.01
2022-11-23T09:49:16.944Z,91.07
2022-11-23T09:50:16.925Z,90.97
2022-11-23T09:51:16.924Z,90.87
2022-11-23T09:52:16.918Z,91.13
2022-11-23T09:53:16.893Z,89.54
2022-11-23T09:54:16.876Z,88.53
2022-11-23T09:55:16.871Z,87.17
2022-11-23T09:56:16.861Z,86.41
2022-11-23T09:57:16.845Z,85.22
2022-11-23T09:58:16.846Z,85.31
2022-11-23T09:59:16.852Z,84.49
2022-11-23T10:00:16.812Z,84.43
2022-11-23T10:01:16.862Z,85.36
2022-11-23T10:02:16.775Z,84.91
2022-11-23T10:03:16.762Z,84.19
2022-11-23T10:04:16.755Z,82.43
2022-11-23T10:05:16.737Z,82.16
2022-11-23T10:06:16.710Z,81.27
2022-11-23T10:07:16.869Z,81.99
2022-11-23T10:08:16.700Z,81.58
2022-11-23T10:09:16.698Z,81.37
2022-11-23T10:10:16.658Z,81.27
2022-11-23T10:11:16.649Z,81.37
2022-11-23T10:12:16.645Z,81.41
2022-11-23T10:13:16.629Z,81.62
2022-11-23T10:14:16.609Z,82.96
2022-11-23T10:15:16.605Z,82.75
2022-11-23T10:16:16.611Z,82.55
2022-11-23T10:17:16.567Z,82.55
2022-11-23T10:18:16.562Z,82.75
2022-11-23T10:19:16.551Z,84.16
2022-11-23T10:20:16.540Z,83.71
2022-11-23T10:21:16.514Z,82.33
2022-11-23T10:22:16.516Z,81.37
2022-11-23T10:23:16.495Z,80.13
2022-11-23T10:24:16.478Z,79.79
2022-11-23T10:25:16.464Z,78.30
2022-11-23T10:26:16.451Z,77.24
2022-11-23T10:27:16.455Z,78.13
2022-11-23T10:28:16.422Z,77.10
2022-11-23T10:29:16.424Z,76.21
2022-11-23T10:30:16.402Z,74.67
2022-11-23T10:31:16.390Z,74.53
2022-11-23T10:32:16.404Z,73.36
2022-11-23T10:33:16.367Z,72.85
2022-11-23T10:34:16.341Z,73.06
2022-11-23T10:35:16.337Z,72.61
2022-11-23T10:36:16.341Z,74.80
2022-11-23T10:37:16.325Z,75.01
2022-11-23T10:38:19.209Z,74.80
2022-11-23T10:39:16.291Z,74.05
2022-11-23T10:40:16.268Z,74.84
2022-11-23T10:41:16.258Z,72.82
2022-11-23T10:42:16.250Z,73.54
2022-11-23T10:43:16.242Z,73.64
2022-11-23T10:44:16.228Z,73.91
2022-11-23T10:45:16.203Z,74.70
2022-11-23T10:46:16.191Z,75.80
2022-11-23T10:47:16.194Z,75.25
2022-11-23T10:48:16.196Z,75.49
2022-11-23T10:49:16.171Z,76.59
2022-11-23T10:50:16.192Z,78.20
2022-11-23T10:51:16.125Z,77.48
2022-11-23T10:52:16.144Z,77.72
2022-11-23T10:53:16.110Z,78.44
2022-11-23T10:54:16.098Z,78.75
2022-11-23T10:55:16.084Z,78.34
2022-11-23T10:56:16.067Z,78.65
2022-11-23T10:57:16.066Z,78.03
2022-11-23T10:58:16.038Z,78.44
2022-11-23T10:59:16.037Z,79.27
2022-11-23T11:00:16.086Z,78.14
2022-11-23T11:01:16.067Z,77.31
2022-11-23T11:02:15.994Z,77.42
2022-11-23T11:03:15.982Z,77.21
2022-11-23T11:04:15.983Z,78.24
2022-11-23T11:05:15.953Z,76.53
2022-11-23T11:06:15.938Z,77.04
2022-11-23T11:07:15.996Z,76.87
2022-11-23T11:08:15.920Z,77.28
2022-11-23T11:09:15.907Z,78.11
2022-11-23T11:10:16.046Z,77.69
2022-11-23T11:11:15.877Z,77.69
2022-11-23T11:12:15.872Z,78.66
2022-11-23T11:13:15.844Z,79.11
2022-11-23T11:14:15.833Z,79.04
2022-11-23T11:15:15.830Z,79.66
2022-11-23T11:16:15.810Z,79.97
2022-11-23T11:17:15.805Z,80.34
2022-11-23T11:18:15.785Z,80.86
2022-11-23T11:19:15.775Z,80.82
2022-11-23T11:20:15.796Z,80.00
2022-11-23T11:21:15.751Z,79.79
2022-11-23T11:22:15.729Z,79.79
2022-11-23T11:23:15.724Z,80.20
2022-11-23T11:24:15.720Z,80.47
2022-11-23T11:25:15.693Z,79.75
2022-11-23T11:26:15.687Z,79.96
2022-11-23T11:27:15.671Z,80.27
2022-11-23T11:28:15.661Z,80.79
2022-11-23T11:29:15.645Z,79.86
2022-11-23T11:30:15.631Z,79.24
2022-11-23T11:31:15.614Z,80.37
2022-11-23T11:32:15.603Z,80.06
2022-11-23T11:33:15.606Z,77.90
2022-11-23T11:34:15.588Z,78.41
2022-11-23T11:35:20.622Z,78.83
2022-11-23T11:36:15.573Z,79.24
2022-11-23T11:37:15.543Z,79.17
2022-11-23T11:38:15.545Z,80.30
2022-11-23T11:39:18.771Z,80.06
2022-11-23T11:40:15.497Z,80.16
2022-11-23T11:41:15.482Z,81.30
2022-11-23T11:42:15.479Z,79.34
2022-11-23T11:43:15.466Z,78.00
2022-11-23T11:44:15.453Z,78.62
2022-11-23T11:45:15.433Z,79.27
2022-11-23T11:46:31.087Z,77.01
2022-11-23T11:47:16.450Z,76.80
2022-11-23T11:48:15.407Z,76.39
2022-11-23T11:49:15.384Z,76.53
2022-11-23T11:50:15.377Z,77.76
2022-11-23T11:51:15.371Z,78.66
2022-11-23T11:52:15.386Z,77.73
2022-11-23T11:53:15.332Z,77.62
2022-11-23T11:54:15.320Z,77.73
2022-11-23T11:55:15.313Z,77.01
2022-11-23T11:56:15.301Z,77.45
2022-11-23T11:57:15.311Z,76.90
2022-11-23T11:58:15.264Z,77.42
2022-11-23T11:59:15.295Z,77.31
2022-11-23T12:00:15.248Z,76.90
2022-11-23T12:01:15.223Z,77.22
2022-11-23T12:02:15.225Z,77.42
2022-11-23T12:03:15.260Z,77.73
2022-11-23T12:04:15.196Z,77.62
2022-11-23T12:05:15.176Z,78.66
2022-11-23T12:06:15.164Z,77.73
2022-11-23T12:07:15.188Z,76.90
2022-11-23T12:08:15.178Z,77.83
2022-11-23T12:09:15.131Z,77.94
2022-11-23T12:10:15.173Z,78.45
2022-11-23T12:11:15.102Z,79.27
2022-11-23T12:12:15.094Z,80.00
2022-11-23T12:13:15.075Z,78.66
2022-11-23T12:14:15.067Z,79.07
2022-11-23T12:15:41.044Z,78.45
2022-11-23T12:16:16.088Z,77.52
2022-11-23T12:17:32.469Z,77.31
2022-11-23T12:18:16.059Z,78.14
2022-11-23T12:19:14.996Z,77.73
2022-11-23T12:20:14.981Z,77.11
2022-11-23T12:21:15.020Z,75.98
2022-11-23T12:22:15.021Z,77.42
2022-11-23T12:23:14.958Z,76.39
2022-11-23T12:24:14.964Z,75.36
2022-11-23T12:25:14.920Z,76.80
2022-11-23T12:26:14.910Z,78.24
2022-11-23T12:27:14.899Z,76.90
2022-11-23T12:28:14.887Z,77.11
2022-11-23T12:29:14.880Z,75.98
2022-11-23T12:30:14.867Z,77.01
2022-11-23T12:31:14.839Z,76.29
2022-11-23T12:32:14.830Z,75.67
2022-11-23T12:33:14.819Z,75.05
2022-11-23T12:34:14.806Z,74.33
2022-11-23T12:35:14.797Z,74.95
2022-11-23T12:36:16.718Z,73.60
2022-11-23T12:37:14.774Z,73.91
2022-11-23T12:38:14.754Z,74.12
2022-11-23T12:39:14.759Z,74.12
2022-11-23T12:40:14.759Z,73.71
2022-11-23T12:41:14.716Z,73.64
2022-11-23T12:42:14.703Z,73.85
2022-11-23T12:43:14.700Z,74.57
2022-11-23T12:44:14.684Z,74.67
2022-11-23T12:45:14.665Z,75.29
2022-11-23T12:46:14.655Z,74.36
2022-11-23T12:47:14.651Z,74.77
2022-11-23T12:48:14.624Z,75.09
2022-11-23T12:49:14.612Z,76.73
2022-11-23T12:50:14.599Z,76.63
2022-11-23T12:51:14.586Z,76.32
2022-11-23T12:52:14.584Z,76.63